Time;durP1;ratioP1;P1;durP2;ratioP2;P2;SDS_P1;SDS_P2;PMS_P1;PMS_P2;Temp;Humidity;BMP_temperature;BMP_pressure;BME280_temperature;BME280_humidity;BME280_pressure;Samples;Min_cycle;Max_cycle;Signal;HPM_P1;HPM_P2
2023/06/07 00:01:05;;;;;;;7.57;2.78;;;;;;;;;;5037927;28;20391;-69
2023/06/07 00:03:31;;;;;;;7.80;2.75;;;;;;;;;;5033608;28;20469;-69
2023/06/07 00:06:00;;;;;;;7.90;2.50;;;;;;;;;;5036409;28;20024;-71
2023/06/07 00:08:28;;;;;;;8.98;2.55;;;;;;;;;;5033128;28;20025;-69
2023/06/07 00:10:55;;;;;;;6.88;2.90;;;;;;;;;;5037095;28;20127;-69
2023/06/07 00:13:21;;;;;;;7.00;2.72;;;;;;;;;;5032006;28;20118;-69
2023/06/07 00:15:47;;;;;;;6.60;2.90;;;;;;;;;;5039757;28;20036;-70
2023/06/07 00:18:15;;;;;;;7.88;2.72;;;;;;;;;;5036071;28;20118;-69
2023/06/07 00:20:45;;;;;;;7.05;2.70;;;;;;;;;;5035571;28;20021;-69
2023/06/07 00:23:13;;;;;;;5.75;2.40;;;;;;;;;;5039711;28;20473;-69
2023/06/07 00:25:39;;;;;;;6.38;2.40;;;;;;;;;;5036255;28;20029;-69
2023/06/07 00:28:05;;;;;;;7.40;2.50;;;;;;;;;;5034884;28;20036;-69
2023/06/07 00:30:31;;;;;;;6.75;2.58;;;;;;;;;;5033849;28;20024;-69
2023/06/07 00:32:57;;;;;;;6.72;2.33;;;;;;;;;;5037304;28;20035;-69
2023/06/07 00:35:24;;;;;;;7.80;2.55;;;;;;;;;;5035693;28;20860;-69
2023/06/07 00:37:50;;;;;;;7.25;2.20;;;;;;;;;;5037473;28;20118;-69
2023/06/07 00:40:16;;;;;;;6.45;2.40;;;;;;;;;;5036312;28;20500;-70
2023/06/07 00:42:42;;;;;;;6.50;2.40;;;;;;;;;;5038799;28;20028;-70
2023/06/07 00:45:09;;;;;;;5.82;2.22;;;;;;;;;;5039549;28;20036;-70
2023/06/07 00:47:39;;;;;;;5.18;1.98;;;;;;;;;;5034718;28;20076;-70
2023/06/07 00:50:06;;;;;;;7.25;2.40;;;;;;;;;;5036385;28;20139;-70
2023/06/07 00:52:35;;;;;;;5.70;2.20;;;;;;;;;;5032724;28;20462;-70
2023/06/07 00:55:02;;;;;;;5.85;1.90;;;;;;;;;;5032689;28;20035;-70
2023/06/07 00:57:32;;;;;;;5.63;2.30;;;;;;;;;;5033707;28;20819;-71
2023/06/07 00:59:59;;;;;;;5.78;2.00;;;;;;;;;;5032148;28;20459;-71
2023/06/07 01:02:26;;;;;;;6.05;2.20;;;;;;;;;;5035992;28;20025;-70
2023/06/07 01:04:52;;;;;;;6.32;1.83;;;;;;;;;;5036695;28;20564;-70
2023/06/07 01:07:24;;;;;;;4.82;1.92;;;;;;;;;;5030715;28;20040;-70
2023/06/07 01:09:50;;;;;;;5.82;2.25;;;;;;;;;;5034490;28;20075;-70
2023/06/07 01:12:18;;;;;;;5.20;2.05;;;;;;;;;;5035355;28;20028;-70
2023/06/07 01:14:45;;;;;;;6.57;2.20;;;;;;;;;;5035678;28;20869;-69
2023/06/07 01:17:12;;;;;;;6.10;2.20;;;;;;;;;;5036045;28;20043;-69
2023/06/07 01:19:39;;;;;;;4.88;2.00;;;;;;;;;;5031830;28;20136;-69
2023/06/07 01:22:06;;;;;;;6.82;2.22;;;;;;;;;;5038242;28;20082;-69
2023/06/07 01:24:42;;;;;;;5.80;1.92;;;;;;;;;;5034223;28;20076;-69
2023/06/07 01:27:10;;;;;;;4.78;1.98;;;;;;;;;;5037084;28;20029;-69
2023/06/07 01:29:36;;;;;;;5.60;2.00;;;;;;;;;;5033648;28;20025;-69
2023/06/07 01:32:05;;;;;;;6.03;1.95;;;;;;;;;;5033705;28;20461;-69
2023/06/07 01:34:31;;;;;;;5.53;1.92;;;;;;;;;;5031933;28;20521;-69
2023/06/07 01:36:57;;;;;;;6.13;2.03;;;;;;;;;;5035156;28;20025;-70
2023/06/07 01:39:25;;;;;;;5.60;1.80;;;;;;;;;;5034133;28;20087;-69
2023/06/07 01:41:52;;;;;;;5.45;1.80;;;;;;;;;;5031841;28;20032;-69
2023/06/07 01:44:18;;;;;;;5.10;2.10;;;;;;;;;;5032007;28;20024;-69
2023/06/07 01:46:45;;;;;;;5.00;1.77;;;;;;;;;;5038065;28;20039;-69
2023/06/07 01:49:12;;;;;;;5.97;2.10;;;;;;;;;;5039555;28;20253;-70
2023/06/07 01:51:38;;;;;;;7.13;2.40;;;;;;;;;;5035743;28;20501;-69
2023/06/07 01:54:05;;;;;;;6.05;2.17;;;;;;;;;;5037405;28;20043;-69
2023/06/07 01:56:50;;;;;;;6.35;1.92;;;;;;;;;;5031604;28;20802;-70
2023/06/07 01:59:35;;;;;;;5.65;2.08;;;;;;;;;;5034209;28;20859;-69
2023/06/07 02:02:08;;;;;;;6.57;2.10;;;;;;;;;;5034218;28;20060;-69
2023/06/07 02:04:36;;;;;;;6.10;2.00;;;;;;;;;;5031451;28;20376;-69
2023/06/07 02:07:05;;;;;;;6.18;1.77;;;;;;;;;;5037651;28;20056;-69
2023/06/07 02:09:35;;;;;;;5.75;2.10;;;;;;;;;;5031394;28;20109;-70
2023/06/07 02:12:02;;;;;;;6.13;1.90;;;;;;;;;;5036516;28;20628;-70
2023/06/07 02:14:29;;;;;;;6.90;1.90;;;;;;;;;;5034481;28;20027;-69
2023/06/07 02:16:55;;;;;;;6.40;2.20;;;;;;;;;;5041974;28;20131;-69
2023/06/07 02:19:21;;;;;;;6.63;2.05;;;;;;;;;;5035153;28;20062;-69
2023/06/07 02:21:48;;;;;;;7.97;2.30;;;;;;;;;;5039584;28;20041;-68
2023/06/07 02:24:14;;;;;;;5.88;2.30;;;;;;;;;;5040439;28;20059;-71
2023/06/07 02:26:42;;;;;;;6.72;2.28;;;;;;;;;;5037712;28;20032;-69
2023/06/07 02:29:08;;;;;;;5.05;1.90;;;;;;;;;;5037978;28;20087;-69
2023/06/07 02:31:34;;;;;;;5.22;2.05;;;;;;;;;;5037149;28;21859;-69
2023/06/07 02:34:01;;;;;;;5.97;1.90;;;;;;;;;;5037188;28;20029;-70
2023/06/07 02:36:32;;;;;;;6.00;2.17;;;;;;;;;;5037413;28;20492;-69
2023/06/07 02:38:59;;;;;;;4.72;1.92;;;;;;;;;;5036107;28;20051;-69
2023/06/07 02:41:25;;;;;;;7.05;2.25;;;;;;;;;;5035389;28;20120;-69
2023/06/07 02:43:51;;;;;;;6.70;2.33;;;;;;;;;;5036200;28;20147;-71
2023/06/07 02:46:17;;;;;;;6.13;1.85;;;;;;;;;;5039787;28;20071;-69
2023/06/07 02:48:44;;;;;;;5.95;2.17;;;;;;;;;;5037700;28;20095;-69
2023/06/07 02:51:11;;;;;;;6.13;1.90;;;;;;;;;;5037492;28;20497;-71
2023/06/07 02:53:37;;;;;;;6.10;2.08;;;;;;;;;;5033811;28;20023;-71
2023/06/07 02:56:03;;;;;;;4.38;1.80;;;;;;;;;;5042235;28;20212;-71
2023/06/07 02:58:29;;;;;;;6.57;2.00;;;;;;;;;;5035047;28;20021;-72
2023/06/07 03:00:56;;;;;;;6.47;1.98;;;;;;;;;;5038852;28;20028;-71
2023/06/07 03:03:23;;;;;;;7.22;2.20;;;;;;;;;;5037962;28;20473;-72
2023/06/07 03:05:49;;;;;;;6.10;1.92;;;;;;;;;;5038699;28;20147;-72
2023/06/07 03:08:16;;;;;;;6.68;1.92;;;;;;;;;;5034350;28;20051;-72
2023/06/07 03:10:42;;;;;;;6.07;2.20;;;;;;;;;;5036002;28;21155;-72
2023/06/07 03:13:08;;;;;;;6.47;2.00;;;;;;;;;;5034111;28;20087;-73
2023/06/07 03:15:35;;;;;;;5.80;2.00;;;;;;;;;;5035620;28;20092;-72
2023/06/07 03:18:03;;;;;;;6.18;2.10;;;;;;;;;;5038665;28;20958;-71
2023/06/07 03:20:33;;;;;;;6.13;2.08;;;;;;;;;;5032974;28;20129;-71
2023/06/07 03:22:59;;;;;;;5.63;1.90;;;;;;;;;;5035788;28;20020;-71
2023/06/07 03:25:25;;;;;;;5.80;2.22;;;;;;;;;;5035285;28;20524;-71
2023/06/07 03:27:51;;;;;;;5.60;1.98;;;;;;;;;;5038225;28;20450;-72
2023/06/07 03:30:17;;;;;;;5.68;2.03;;;;;;;;;;5034046;28;20533;-73
2023/06/07 03:32:43;;;;;;;7.25;2.10;;;;;;;;;;5039685;28;20658;-72
2023/06/07 03:35:11;;;;;;;6.80;1.92;;;;;;;;;;5040815;28;20513;-71
2023/06/07 03:37:37;;;;;;;5.10;1.80;;;;;;;;;;5041445;28;20394;-74
2023/06/07 03:40:04;;;;;;;5.40;1.65;;;;;;;;;;5037473;28;20076;-73
2023/06/07 03:42:30;;;;;;;5.10;1.70;;;;;;;;;;5031870;28;20024;-74
2023/06/07 03:44:57;;;;;;;3.97;1.55;;;;;;;;;;5036244;28;20017;-74
2023/06/07 03:47:23;;;;;;;4.65;1.70;;;;;;;;;;5034246;28;20490;-73
2023/06/07 03:49:49;;;;;;;4.28;1.73;;;;;;;;;;5036131;28;20448;-73
2023/06/07 03:52:15;;;;;;;5.55;2.00;;;;;;;;;;5037060;28;20115;-74
2023/06/07 03:54:42;;;;;;;6.80;2.00;;;;;;;;;;5038077;28;20082;-74
2023/06/07 03:57:08;;;;;;;7.13;1.85;;;;;;;;;;5039953;28;20043;-74
2023/06/07 03:59:34;;;;;;;4.63;1.73;;;;;;;;;;5034039;28;20024;-74
2023/06/07 04:02:00;;;;;;;4.90;1.60;;;;;;;;;;5036474;28;20040;-74
2023/06/07 04:04:32;;;;;;;4.90;1.80;;;;;;;;;;5034973;28;20021;-74
2023/06/07 04:06:58;;;;;;;5.53;1.77;;;;;;;;;;5040006;28;20033;-74
2023/06/07 04:09:25;;;;;;;6.57;1.80;;;;;;;;;;5032118;28;20028;-73
2023/06/07 04:11:51;;;;;;;4.78;1.70;;;;;;;;;;5038937;28;20835;-73
2023/06/07 04:14:17;;;;;;;5.93;1.77;;;;;;;;;;5034597;28;20326;-73
2023/06/07 04:16:43;;;;;;;6.28;1.80;;;;;;;;;;5038271;28;20059;-73
2023/06/07 04:19:10;;;;;;;5.82;1.80;;;;;;;;;;5037633;28;20037;-74
2023/06/07 04:21:36;;;;;;;4.47;1.40;;;;;;;;;;5036041;28;20400;-73
2023/06/07 04:24:04;;;;;;;3.33;1.35;;;;;;;;;;5037715;28;20416;-73
2023/06/07 04:26:31;;;;;;;4.70;1.65;;;;;;;;;;5036126;28;20075;-74
2023/06/07 04:28:59;;;;;;;4.22;1.55;;;;;;;;;;5042740;28;20339;-73
2023/06/07 04:31:29;;;;;;;6.03;2.03;;;;;;;;;;5037305;28;20029;-73
2023/06/07 04:34:01;;;;;;;5.38;1.92;;;;;;;;;;5045884;28;20432;-74
2023/06/07 04:36:30;;;;;;;6.63;1.88;;;;;;;;;;5039584;28;20804;-74
2023/06/07 04:39:00;;;;;;;6.53;1.83;;;;;;;;;;5043156;28;20486;-74
2023/06/07 04:41:35;;;;;;;4.00;1.40;;;;;;;;;;5038534;28;20136;-75
2023/06/07 04:44:03;;;;;;;6.07;1.75;;;;;;;;;;5045392;28;20043;-74
2023/06/07 04:46:30;;;;;;;4.80;2.08;;;;;;;;;;5041185;28;20020;-76
2023/06/07 04:48:58;;;;;;;6.25;2.00;;;;;;;;;;5040174;28;20428;-75
2023/06/07 04:51:25;;;;;;;6.88;2.10;;;;;;;;;;5040272;28;20091;-75
2023/06/07 04:53:57;;;;;;;6.95;2.08;;;;;;;;;;5043295;28;20032;-74
2023/06/07 04:56:25;;;;;;;5.32;1.90;;;;;;;;;;5043366;28;20035;-74
2023/06/07 04:58:55;;;;;;;5.40;1.85;;;;;;;;;;5045790;28;20040;-75
2023/06/07 05:01:22;;;;;;;5.07;1.83;;;;;;;;;;5041690;28;20025;-74
2023/06/07 05:03:49;;;;;;;5.18;1.67;;;;;;;;;;5031892;28;20140;-73
2023/06/07 05:06:18;;;;;;;4.07;1.50;;;;;;;;;;5030586;28;20029;-74
2023/06/07 05:08:45;;;;;;;5.57;2.00;;;;;;;;;;5035223;28;20105;-74
2023/06/07 05:11:11;;;;;;;5.40;1.90;;;;;;;;;;5037601;28;20052;-74
2023/06/07 05:13:37;;;;;;;6.70;2.00;;;;;;;;;;5032361;28;20085;-74
2023/06/07 05:16:04;;;;;;;6.55;1.90;;;;;;;;;;5037963;28;20323;-74
2023/06/07 05:18:30;;;;;;;8.38;2.13;;;;;;;;;;5031895;28;20024;-74
2023/06/07 05:20:56;;;;;;;5.80;1.95;;;;;;;;;;5038824;28;20036;-74
2023/06/07 05:23:23;;;;;;;4.32;1.65;;;;;;;;;;5035532;28;20032;-74
2023/06/07 05:25:49;;;;;;;9.07;2.80;;;;;;;;;;5032946;28;20025;-74
2023/06/07 05:28:15;;;;;;;10.43;2.80;;;;;;;;;;5031110;28;20318;-73
2023/06/07 05:30:41;;;;;;;6.40;2.30;;;;;;;;;;5035721;28;20029;-74
2023/06/07 05:33:07;;;;;;;6.30;2.08;;;;;;;;;;5034519;28;20127;-72
2023/06/07 05:35:34;;;;;;;6.57;2.50;;;;;;;;;;5033795;28;21220;-73
2023/06/07 05:38:01;;;;;;;6.95;2.65;;;;;;;;;;5033365;28;20485;-72
2023/06/07 05:40:27;;;;;;;6.45;2.20;;;;;;;;;;5033191;28;20065;-74
2023/06/07 05:42:56;;;;;;;6.20;2.60;;;;;;;;;;5040457;28;20103;-72
2023/06/07 05:45:22;;;;;;;5.95;2.20;;;;;;;;;;5033019;28;20036;-74
2023/06/07 05:47:48;;;;;;;7.95;2.60;;;;;;;;;;5031547;28;20557;-74
2023/06/07 05:50:15;;;;;;;7.05;2.25;;;;;;;;;;5036579;28;20587;-74
2023/06/07 05:52:41;;;;;;;6.32;2.28;;;;;;;;;;5036952;28;20584;-74
2023/06/07 05:55:08;;;;;;;8.25;2.50;;;;;;;;;;5034808;28;20063;-74
2023/06/07 05:57:35;;;;;;;8.27;2.00;;;;;;;;;;5033432;28;20039;-74
2023/06/07 06:00:04;;;;;;;7.10;2.67;;;;;;;;;;5036363;28;20044;-74
2023/06/07 06:02:30;;;;;;;8.15;2.42;;;;;;;;;;5031869;28;20017;-74
2023/06/07 06:04:57;;;;;;;7.63;2.33;;;;;;;;;;5034573;28;20781;-74
2023/06/07 06:07:23;;;;;;;7.30;2.30;;;;;;;;;;5029559;28;20535;-74
2023/06/07 06:09:49;;;;;;;5.95;2.13;;;;;;;;;;5034260;28;20399;-74
2023/06/07 06:12:16;;;;;;;8.90;2.70;;;;;;;;;;5034790;28;20104;-74
2023/06/07 06:14:42;;;;;;;9.63;2.30;;;;;;;;;;5035336;28;20093;-74
2023/06/07 06:17:08;;;;;;;5.45;1.92;;;;;;;;;;5036272;28;20091;-74
2023/06/07 06:19:34;;;;;;;7.10;2.00;;;;;;;;;;5034982;28;20055;-74
2023/06/07 06:22:00;;;;;;;5.40;1.65;;;;;;;;;;5037579;28;20025;-75
2023/06/07 06:24:26;;;;;;;8.80;1.80;;;;;;;;;;5028659;28;20048;-74
2023/06/07 06:26:53;;;;;;;10.30;2.47;;;;;;;;;;5033994;28;20024;-74
2023/06/07 06:29:19;;;;;;;6.53;1.80;;;;;;;;;;5030894;28;20049;-75
2023/06/07 06:31:45;;;;;;;6.93;2.30;;;;;;;;;;5037255;28;20028;-75
2023/06/07 06:34:12;;;;;;;7.25;2.30;;;;;;;;;;5036513;28;20525;-75
2023/06/07 06:36:38;;;;;;;5.78;1.98;;;;;;;;;;5035942;28;20017;-75
2023/06/07 06:39:05;;;;;;;6.00;1.92;;;;;;;;;;5036843;28;20064;-75
2023/06/07 06:41:31;;;;;;;5.70;1.73;;;;;;;;;;5028344;28;20544;-74
2023/06/07 06:43:58;;;;;;;6.22;1.80;;;;;;;;;;5035557;28;20035;-74
2023/06/07 06:46:24;;;;;;;6.60;1.95;;;;;;;;;;5032367;28;20024;-73
2023/06/07 06:48:50;;;;;;;5.38;1.83;;;;;;;;;;5036368;28;20436;-73
2023/06/07 06:51:16;;;;;;;5.30;1.70;;;;;;;;;;5031574;28;20335;-73
2023/06/07 06:53:42;;;;;;;6.57;1.95;;;;;;;;;;5031479;28;20055;-73
2023/06/07 06:56:09;;;;;;;5.82;1.58;;;;;;;;;;5035279;28;20028;-73
2023/06/07 06:58:35;;;;;;;4.60;1.40;;;;;;;;;;5035233;28;20351;-74
2023/06/07 07:01:02;;;;;;;7.07;2.00;;;;;;;;;;5037046;28;20036;-73
2023/06/07 07:03:29;;;;;;;4.93;1.67;;;;;;;;;;5037010;28;20040;-74
2023/06/07 07:05:55;;;;;;;6.50;2.17;;;;;;;;;;5038657;28;20058;-74
2023/06/07 07:08:21;;;;;;;4.88;1.35;;;;;;;;;;5031871;28;20040;-73
2023/06/07 07:10:47;;;;;;;4.57;1.58;;;;;;;;;;5036550;28;20029;-73
2023/06/07 07:13:15;;;;;;;7.50;2.08;;;;;;;;;;5039201;28;20132;-73
2023/06/07 07:15:41;;;;;;;5.60;1.80;;;;;;;;;;5040493;28;20433;-73
2023/06/07 07:18:08;;;;;;;5.25;1.55;;;;;;;;;;5040966;28;20032;-74
2023/06/07 07:20:35;;;;;;;5.05;1.52;;;;;;;;;;5033531;28;20052;-73
2023/06/07 07:23:02;;;;;;;5.47;1.50;;;;;;;;;;5039220;28;20311;-73
2023/06/07 07:25:29;;;;;;;7.38;2.05;;;;;;;;;;5031419;28;20478;-73
2023/06/07 07:27:55;;;;;;;9.57;1.92;;;;;;;;;;5036309;28;20028;-74
2023/06/07 07:30:22;;;;;;;7.70;1.92;;;;;;;;;;5032849;28;20951;-74
2023/06/07 07:32:48;;;;;;;8.60;1.95;;;;;;;;;;5036847;28;20390;-74
2023/06/07 07:35:14;;;;;;;10.20;2.50;;;;;;;;;;5037214;28;20036;-74
2023/06/07 07:37:40;;;;;;;17.83;2.65;;;;;;;;;;5033443;28;20305;-74
2023/06/07 07:40:12;;;;;;;5.28;1.58;;;;;;;;;;5037623;28;20606;-73
2023/06/07 07:42:38;;;;;;;6.80;1.90;;;;;;;;;;5036660;28;20440;-73
2023/06/07 07:45:05;;;;;;;8.02;1.88;;;;;;;;;;5039722;28;20078;-73
2023/06/07 07:47:33;;;;;;;6.00;1.80;;;;;;;;;;5036467;28;20031;-74
2023/06/07 07:50:00;;;;;;;7.47;1.60;;;;;;;;;;5031849;28;20059;-73
2023/06/07 07:52:26;;;;;;;4.88;1.40;;;;;;;;;;5034982;28;21168;-74
2023/06/07 07:54:52;;;;;;;6.50;1.70;;;;;;;;;;5036845;28;20482;-74
2023/06/07 07:57:19;;;;;;;10.93;2.00;;;;;;;;;;5035268;28;20441;-75
2023/06/07 07:59:45;;;;;;;5.32;1.50;;;;;;;;;;5034361;28;20025;-75
2023/06/07 08:02:11;;;;;;;3.83;1.33;;;;;;;;;;5037413;28;20462;-73
2023/06/07 08:04:37;;;;;;;4.20;1.40;;;;;;;;;;5035178;28;20024;-74
2023/06/07 08:07:03;;;;;;;4.45;1.30;;;;;;;;;;5036847;28;20029;-74
2023/06/07 08:09:30;;;;;;;11.98;2.10;;;;;;;;;;5029290;28;20044;-75
2023/06/07 08:11:56;;;;;;;8.93;1.75;;;;;;;;;;5034108;28;20039;-73
2023/06/07 08:14:22;;;;;;;7.47;1.55;;;;;;;;;;5033030;28;20032;-73
2023/06/07 08:16:48;;;;;;;4.95;1.45;;;;;;;;;;5037986;28;20207;-74
2023/06/07 08:19:14;;;;;;;4.78;1.38;;;;;;;;;;5036880;28;20619;-74
2023/06/07 08:21:43;;;;;;;3.60;1.30;;;;;;;;;;5037719;28;20040;-75
2023/06/07 08:24:11;;;;;;;5.25;1.60;;;;;;;;;;5033628;28;20021;-74
2023/06/07 08:26:37;;;;;;;3.83;1.40;;;;;;;;;;5032744;28;20440;-74
2023/06/07 08:29:05;;;;;;;5.78;1.40;;;;;;;;;;5038080;28;20111;-74
2023/06/07 08:31:31;;;;;;;4.82;1.40;;;;;;;;;;5032844;28;20112;-74
2023/06/07 08:33:57;;;;;;;6.30;1.40;;;;;;;;;;5038050;28;20020;-74
2023/06/07 08:36:24;;;;;;;6.97;1.45;;;;;;;;;;5034357;28;20450;-74
2023/06/07 08:38:50;;;;;;;6.40;1.30;;;;;;;;;;5036392;28;20047;-74
2023/06/07 08:41:16;;;;;;;5.90;1.50;;;;;;;;;;5032108;28;20190;-75
2023/06/07 08:43:44;;;;;;;4.40;1.40;;;;;;;;;;5035871;28;20033;-74
2023/06/07 08:46:10;;;;;;;5.30;1.40;;;;;;;;;;5032785;28;20657;-75
2023/06/07 08:48:39;;;;;;;5.55;1.48;;;;;;;;;;5034390;28;20112;-75
2023/06/07 08:51:07;;;;;;;5.43;1.33;;;;;;;;;;5030727;28;20037;-75
2023/06/07 08:53:54;;;;;;;6.00;1.60;;;;;;;;;;5033387;28;20036;-74
2023/06/07 08:56:21;;;;;;;5.18;1.40;;;;;;;;;;5048220;28;20033;-74
2023/06/07 08:58:48;;;;;;;4.40;1.50;;;;;;;;;;5038521;28;20056;-74
2023/06/07 09:01:15;;;;;;;5.38;1.48;;;;;;;;;;5038936;28;20028;-74
2023/06/07 09:03:41;;;;;;;4.15;1.30;;;;;;;;;;5036281;28;20106;-74
2023/06/07 09:06:08;;;;;;;3.58;1.33;;;;;;;;;;5051083;28;20443;-74
2023/06/07 09:08:35;;;;;;;4.93;1.55;;;;;;;;;;5032185;28;20060;-74
2023/06/07 09:11:02;;;;;;;6.32;1.42;;;;;;;;;;5038280;28;21423;-74
2023/06/07 09:13:28;;;;;;;5.88;1.20;;;;;;;;;;5033362;28;20032;-74
2023/06/07 09:15:56;;;;;;;6.57;1.50;;;;;;;;;;5037882;28;20052;-75
2023/06/07 09:18:22;;;;;;;4.28;1.20;;;;;;;;;;5032316;28;20157;-74
2023/06/07 09:20:48;;;;;;;4.90;1.38;;;;;;;;;;5033884;28;20035;-74
2023/06/07 09:23:16;;;;;;;6.00;1.65;;;;;;;;;;5035304;28;20029;-74
2023/06/07 09:25:46;;;;;;;4.68;1.58;;;;;;;;;;5035456;28;20025;-73
2023/06/07 09:28:14;;;;;;;5.18;1.67;;;;;;;;;;5038903;28;20036;-74
2023/06/07 09:30:56;;;;;;;11.80;1.92;;;;;;;;;;5029591;28;20167;-75
2023/06/07 09:33:29;;;;;;;7.18;1.60;;;;;;;;;;5026862;28;20395;-74
2023/06/07 09:36:06;;;;;;;5.53;1.60;;;;;;;;;;5038625;28;20895;-75
2023/06/07 09:38:33;;;;;;;5.18;1.52;;;;;;;;;;5031448;28;20044;-74
2023/06/07 09:41:01;;;;;;;4.43;1.48;;;;;;;;;;5034010;28;20059;-74
2023/06/07 09:43:27;;;;;;;5.43;1.25;;;;;;;;;;5032373;28;20035;-74
2023/06/07 09:45:54;;;;;;;4.72;1.30;;;;;;;;;;5036372;28;20019;-74
2023/06/07 09:48:20;;;;;;;5.88;1.48;;;;;;;;;;5032427;28;20151;-75
2023/06/07 09:50:59;;;;;;;6.10;1.70;;;;;;;;;;5033545;28;20021;-74
2023/06/07 09:53:27;;;;;;;4.43;1.40;;;;;;;;;;5033322;28;20056;-73
2023/06/07 09:55:53;;;;;;;6.85;1.50;;;;;;;;;;5034109;28;20625;-74
2023/06/07 09:58:22;;;;;;;3.78;1.20;;;;;;;;;;5030069;28;20111;-74
2023/06/07 10:00:48;;;;;;;3.22;1.20;;;;;;;;;;5033822;28;20599;-74
2023/06/07 10:03:16;;;;;;;6.40;1.65;;;;;;;;;;5035783;28;20025;-74
2023/06/07 10:05:42;;;;;;;6.93;1.77;;;;;;;;;;5035685;28;20042;-74
2023/06/07 10:08:10;;;;;;;4.50;1.42;;;;;;;;;;5034819;28;20102;-74
2023/06/07 10:10:38;;;;;;;6.55;1.65;;;;;;;;;;5030505;28;20042;-75
2023/06/07 10:13:05;;;;;;;5.25;1.48;;;;;;;;;;5030790;28;20502;-73
2023/06/07 10:15:32;;;;;;;4.75;1.50;;;;;;;;;;5030103;28;20290;-74
2023/06/07 10:18:01;;;;;;;4.43;1.40;;;;;;;;;;5037392;28;20032;-74
2023/06/07 10:20:33;;;;;;;5.75;1.30;;;;;;;;;;5033314;28;20278;-73
2023/06/07 10:23:03;;;;;;;4.40;1.70;;;;;;;;;;5035252;28;20029;-73
2023/06/07 10:25:31;;;;;;;5.40;1.58;;;;;;;;;;5030482;28;20024;-73
2023/06/07 10:28:05;;;;;;;5.20;1.65;;;;;;;;;;5031561;28;20816;-73
2023/06/07 10:30:33;;;;;;;6.22;1.70;;;;;;;;;;5028169;28;20029;-73
2023/06/07 10:33:00;;;;;;;5.28;1.60;;;;;;;;;;5035484;28;20546;-73
2023/06/07 10:35:26;;;;;;;4.63;1.70;;;;;;;;;;5036587;28;20036;-73
2023/06/07 10:37:53;;;;;;;3.67;1.30;;;;;;;;;;5037525;28;20040;-73
2023/06/07 10:40:21;;;;;;;5.38;1.70;;;;;;;;;;5036799;28;20040;-73
2023/06/07 10:42:47;;;;;;;5.40;1.60;;;;;;;;;;5039320;28;20089;-74
2023/06/07 10:45:17;;;;;;;4.43;1.40;;;;;;;;;;5040401;28;20082;-73
2023/06/07 10:47:47;;;;;;;6.30;2.00;;;;;;;;;;5039631;28;20036;-73
2023/06/07 10:50:36;;;;;;;5.38;1.63;;;;;;;;;;5041392;28;20032;-73
2023/06/07 10:53:03;;;;;;;6.32;1.67;;;;;;;;;;5036198;28;20103;-73
2023/06/07 10:55:31;;;;;;;12.27;2.47;;;;;;;;;;5032718;28;20175;-73
2023/06/07 10:57:57;;;;;;;6.28;1.67;;;;;;;;;;5039389;28;20056;-73
2023/06/07 11:00:28;;;;;;;5.85;1.80;;;;;;;;;;5036681;28;20056;-73
2023/06/07 11:03:09;;;;;;;5.63;1.65;;;;;;;;;;5037407;28;20040;-74
2023/06/07 11:05:53;;;;;;;5.28;1.70;;;;;;;;;;5032615;28;20448;-74
2023/06/07 11:08:28;;;;;;;7.75;2.00;;;;;;;;;;5035152;28;20771;-74
2023/06/07 11:10:58;;;;;;;6.10;1.75;;;;;;;;;;5038019;28;20534;-73
2023/06/07 11:13:27;;;;;;;7.72;1.70;;;;;;;;;;5036191;28;20659;-73
2023/06/07 11:15:53;;;;;;;5.15;1.50;;;;;;;;;;5037201;28;20028;-74
2023/06/07 11:18:20;;;;;;;6.75;1.67;;;;;;;;;;5031759;28;20039;-74
2023/06/07 11:20:49;;;;;;;7.50;1.70;;;;;;;;;;5037597;28;20039;-74
2023/06/07 11:23:34;;;;;;;5.10;1.45;;;;;;;;;;5035286;28;20028;-74
2023/06/07 11:26:08;;;;;;;4.65;1.30;;;;;;;;;;5038541;28;20133;-74
2023/06/07 11:28:37;;;;;;;4.88;1.40;;;;;;;;;;5032551;28;20012;-74
2023/06/07 11:31:04;;;;;;;5.20;1.60;;;;;;;;;;5040969;28;20029;-74
2023/06/07 11:33:30;;;;;;;8.57;1.73;;;;;;;;;;5036415;28;20071;-74
2023/06/07 11:35:57;;;;;;;5.30;1.60;;;;;;;;;;5039094;28;20029;-74
2023/06/07 11:38:26;;;;;;;7.20;1.98;;;;;;;;;;5033211;28;20686;-73
2023/06/07 11:40:52;;;;;;;5.13;1.92;;;;;;;;;;5037583;28;20055;-73
2023/06/07 11:43:23;;;;;;;5.80;1.38;;;;;;;;;;5035683;28;20052;-73
2023/06/07 11:45:50;;;;;;;5.72;1.40;;;;;;;;;;5035193;28;20911;-73
2023/06/07 11:48:17;;;;;;;5.47;1.30;;;;;;;;;;5036481;28;20470;-73
2023/06/07 11:50:43;;;;;;;6.90;1.60;;;;;;;;;;5037601;28;20478;-74
2023/06/07 11:53:11;;;;;;;6.15;1.65;;;;;;;;;;5037380;28;20033;-73
2023/06/07 11:55:37;;;;;;;6.20;1.55;;;;;;;;;;5032992;28;20418;-74
2023/06/07 11:58:05;;;;;;;5.18;1.50;;;;;;;;;;5035291;28;20468;-74
2023/06/07 12:00:33;;;;;;;5.45;1.48;;;;;;;;;;5033950;28;20721;-75
2023/06/07 12:03:00;;;;;;;4.97;1.42;;;;;;;;;;5036854;28;20024;-73
2023/06/07 12:05:34;;;;;;;5.25;1.60;;;;;;;;;;5029661;28;20317;-73
2023/06/07 12:08:06;;;;;;;5.45;1.73;;;;;;;;;;5035538;28;20021;-74
2023/06/07 12:10:33;;;;;;;5.55;2.03;;;;;;;;;;5033515;28;20036;-73
2023/06/07 12:13:15;;;;;;;7.90;2.13;;;;;;;;;;5034050;28;20394;-74
2023/06/07 12:15:42;;;;;;;7.00;2.17;;;;;;;;;;5033990;28;20029;-74
2023/06/07 12:18:16;;;;;;;11.60;1.80;;;;;;;;;;5036871;28;20021;-74
2023/06/07 12:20:42;;;;;;;14.82;2.65;;;;;;;;;;5037984;28;20070;-73
2023/06/07 12:23:10;;;;;;;12.48;2.33;;;;;;;;;;5038885;28;20419;-73
2023/06/07 12:25:36;;;;;;;10.27;2.00;;;;;;;;;;5034143;28;20071;-73
2023/06/07 12:28:09;;;;;;;8.43;2.08;;;;;;;;;;5036568;28;20020;-73
2023/06/07 12:30:40;;;;;;;6.78;2.22;;;;;;;;;;5032295;28;21081;-73
2023/06/07 12:33:16;;;;;;;6.28;1.92;;;;;;;;;;5034382;28;20148;-74
2023/06/07 12:35:50;;;;;;;14.82;3.42;;;;;;;;;;5038699;28;20198;-74
2023/06/07 12:38:20;;;;;;;9.10;2.47;;;;;;;;;;5034033;28;20110;-73
2023/06/07 12:40:46;;;;;;;12.30;2.47;;;;;;;;;;5037575;28;20613;-73
2023/06/07 12:43:13;;;;;;;10.55;2.47;;;;;;;;;;5033502;28;20032;-74
2023/06/07 12:45:39;;;;;;;10.80;3.10;;;;;;;;;;5030426;28;20731;-74
2023/06/07 12:48:05;;;;;;;10.27;2.70;;;;;;;;;;5030945;28;20037;-73
2023/06/07 12:50:32;;;;;;;9.63;2.63;;;;;;;;;;5026807;28;20516;-73
2023/06/07 12:52:58;;;;;;;7.88;2.38;;;;;;;;;;5036429;28;20039;-73
2023/06/07 12:55:25;;;;;;;7.30;2.10;;;;;;;;;;5033994;28;20032;-73
2023/06/07 12:57:51;;;;;;;6.38;1.88;;;;;;;;;;5033056;28;20033;-74
2023/06/07 13:00:17;;;;;;;6.93;1.80;;;;;;;;;;5028957;28;20036;-73
2023/06/07 13:02:44;;;;;;;4.65;1.60;;;;;;;;;;5027210;28;20034;-74
2023/06/07 13:05:14;;;;;;;6.32;1.80;;;;;;;;;;5030102;28;20138;-75
2023/06/07 13:07:41;;;;;;;7.22;2.00;;;;;;;;;;5029253;28;20128;-75
2023/06/07 13:10:10;;;;;;;8.48;2.50;;;;;;;;;;5029572;28;20053;-74
2023/06/07 13:12:36;;;;;;;7.10;2.22;;;;;;;;;;5028866;28;20617;-75
2023/06/07 13:15:04;;;;;;;6.93;1.85;;;;;;;;;;5034087;28;20511;-74
2023/06/07 13:17:31;;;;;;;8.85;3.03;;;;;;;;;;5035434;28;20453;-73
2023/06/07 13:19:57;;;;;;;22.48;14.30;;;;;;;;;;5029474;28;20479;-73
2023/06/07 13:22:23;;;;;;;8.48;3.08;;;;;;;;;;5028678;28;20336;-72
2023/06/07 13:24:50;;;;;;;7.65;2.35;;;;;;;;;;5031310;28;20037;-72
2023/06/07 13:27:16;;;;;;;6.25;2.28;;;;;;;;;;5028823;28;20078;-72
2023/06/07 13:29:42;;;;;;;6.72;2.00;;;;;;;;;;5032731;28;20117;-72
2023/06/07 13:32:08;;;;;;;7.07;2.15;;;;;;;;;;5028276;28;20547;-72
2023/06/07 13:34:35;;;;;;;14.93;2.60;;;;;;;;;;5032738;28;20623;-72
2023/06/07 13:37:01;;;;;;;10.35;2.25;;;;;;;;;;5028704;28;20059;-72
2023/06/07 13:39:27;;;;;;;8.35;2.42;;;;;;;;;;5024506;28;20033;-72
2023/06/07 13:41:53;;;;;;;8.82;2.30;;;;;;;;;;5031548;28;20091;-72
2023/06/07 13:44:19;;;;;;;9.40;2.70;;;;;;;;;;5032407;28;20032;-72
2023/06/07 13:46:45;;;;;;;8.90;2.58;;;;;;;;;;5030843;28;20423;-72
2023/06/07 13:49:12;;;;;;;9.38;2.45;;;;;;;;;;5029289;28;20565;-73
2023/06/07 13:51:38;;;;;;;11.90;2.55;;;;;;;;;;5029265;28;20628;-73
2023/06/07 13:54:05;;;;;;;7.93;2.60;;;;;;;;;;5031950;28;20037;-72
2023/06/07 13:56:31;;;;;;;8.52;2.30;;;;;;;;;;5029670;28;20033;-72
2023/06/07 13:58:58;;;;;;;8.07;2.50;;;;;;;;;;5030566;28;20546;-74
2023/06/07 14:01:24;;;;;;;12.73;3.60;;;;;;;;;;5029506;28;20036;-75
2023/06/07 14:03:50;;;;;;;10.07;3.00;;;;;;;;;;5033071;28;20157;-74
2023/06/07 14:06:21;;;;;;;8.50;2.50;;;;;;;;;;5030792;28;20031;-73
2023/06/07 14:08:48;;;;;;;9.00;2.58;;;;;;;;;;5036511;28;20451;-74
2023/06/07 14:11:14;;;;;;;7.22;2.33;;;;;;;;;;5034434;28;20037;-74
2023/06/07 14:13:42;;;;;;;8.95;2.55;;;;;;;;;;5033243;28;20393;-74
2023/06/07 14:16:08;;;;;;;10.38;3.20;;;;;;;;;;5038949;28;20625;-74
2023/06/07 14:18:34;;;;;;;10.00;2.60;;;;;;;;;;5034225;28;20359;-74
2023/06/07 14:21:00;;;;;;;8.57;2.47;;;;;;;;;;5034872;28;20024;-72
2023/06/07 14:23:27;;;;;;;7.22;2.10;;;;;;;;;;5032039;28;20485;-73
2023/06/07 14:25:53;;;;;;;8.18;2.20;;;;;;;;;;5033939;28;20273;-73
2023/06/07 14:28:19;;;;;;;11.13;2.42;;;;;;;;;;5031403;28;20032;-73
2023/06/07 14:30:45;;;;;;;9.95;2.85;;;;;;;;;;5032783;28;20036;-73
2023/06/07 14:33:11;;;;;;;10.32;2.60;;;;;;;;;;5033745;28;20068;-74
2023/06/07 14:35:37;;;;;;;11.02;2.70;;;;;;;;;;5034219;28;20807;-74
2023/06/07 14:38:03;;;;;;;8.00;2.55;;;;;;;;;;5034944;28;20051;-72
2023/06/07 14:40:30;;;;;;;9.30;2.63;;;;;;;;;;5030894;28;20921;-72
2023/06/07 14:42:56;;;;;;;11.27;3.28;;;;;;;;;;5031782;28;20761;-74